createdAt,value
2019-04-28T00:00:16.241Z,11.1
2019-04-28T00:01:16.174Z,11.1
2019-04-28T00:02:16.192Z,11.1
2019-04-28T00:03:16.299Z,11.1
2019-04-28T00:04:16.245Z,11.1
2019-04-28T00:05:16.334Z,11
2019-04-28T00:06:16.304Z,11
2019-04-28T00:07:16.277Z,11
2019-04-28T00:08:16.309Z,11
2019-04-28T00:09:16.307Z,11
2019-04-28T00:10:16.352Z,11
2019-04-28T00:11:16.356Z,11
2019-04-28T00:12:16.389Z,11
2019-04-28T00:13:16.398Z,11
2019-04-28T00:14:16.407Z,10.9
2019-04-28T00:15:16.399Z,10.9
2019-04-28T00:16:16.414Z,10.9
2019-04-28T00:17:18.647Z,10.9
2019-04-28T00:18:16.426Z,10.9
2019-04-28T00:19:16.457Z,10.9
2019-04-28T00:20:16.449Z,10.9
2019-04-28T00:21:16.445Z,10.9
2019-04-28T00:22:16.448Z,10.9
2019-04-28T00:23:16.482Z,10.9
2019-04-28T00:24:16.539Z,10.9
2019-04-28T00:25:16.462Z,10.9
2019-04-28T00:26:16.466Z,10.9
2019-04-28T00:27:16.462Z,10.9
2019-04-28T00:28:16.472Z,10.9
2019-04-28T00:29:16.476Z,10.8
2019-04-28T00:30:16.504Z,10.8
2019-04-28T00:31:16.561Z,10.8
2019-04-28T00:32:16.631Z,10.8
2019-04-28T00:33:16.624Z,10.8
2019-04-28T00:34:16.722Z,10.8
2019-04-28T00:35:16.754Z,10.8
2019-04-28T00:36:16.786Z,10.8
2019-04-28T00:37:16.804Z,10.7
2019-04-28T00:38:16.877Z,10.7
2019-04-28T00:39:16.937Z,10.7
2019-04-28T00:40:16.976Z,10.7
2019-04-28T00:41:17.042Z,10.7
2019-04-28T00:42:17.132Z,10.7
2019-04-28T00:43:17.175Z,10.7
2019-04-28T00:44:17.217Z,10.6
2019-04-28T00:45:17.281Z,10.6
2019-04-28T00:46:17.316Z,10.6
2019-04-28T00:47:17.386Z,10.6
2019-04-28T00:48:17.433Z,10.6
2019-04-28T00:49:17.457Z,10.6
2019-04-28T00:50:17.532Z,10.6
2019-04-28T00:51:17.548Z,10.6
2019-04-28T00:52:17.581Z,10.6
2019-04-28T00:53:17.675Z,10.6
2019-04-28T00:54:17.780Z,10.6
2019-04-28T00:55:17.731Z,10.6
2019-04-28T00:56:17.768Z,10.5
2019-04-28T00:57:17.829Z,10.5
2019-04-28T00:58:17.828Z,10.5
2019-04-28T00:59:17.895Z,10.6
2019-04-28T01:00:18.023Z,10.6
2019-04-28T01:01:17.978Z,10.6
2019-04-28T01:02:17.980Z,10.6
2019-04-28T01:03:18.030Z,10.6
2019-04-28T01:04:18.091Z,10.6
2019-04-28T01:05:18.161Z,10.6
2019-04-28T01:06:18.221Z,10.6
2019-04-28T01:07:18.254Z,10.6
2019-04-28T01:08:18.299Z,10.6
2019-04-28T01:09:18.362Z,10.6
2019-04-28T01:10:18.418Z,10.6
2019-04-28T01:11:18.453Z,10.5
2019-04-28T01:12:18.512Z,10.5
2019-04-28T01:13:18.559Z,10.5
2019-04-28T01:14:18.620Z,10.5
2019-04-28T01:15:20.166Z,10.5
2019-04-28T01:16:19.388Z,10.5
2019-04-28T01:17:19.794Z,10.5
2019-04-28T01:18:20.115Z,10.4
2019-04-28T01:19:20.202Z,10.4
2019-04-28T01:20:19.648Z,10.4
2019-04-28T01:21:20.299Z,10.4
2019-04-28T01:22:20.124Z,10.4
2019-04-28T01:23:20.328Z,10.4
2019-04-28T01:24:20.041Z,10.4
2019-04-28T01:25:20.272Z,10.3
2019-04-28T01:26:19.984Z,10.3
2019-04-28T01:27:20.340Z,10.3
2019-04-28T01:28:19.450Z,10.3
2019-04-28T01:29:19.494Z,10.3
2019-04-28T01:30:20.257Z,10.3
2019-04-28T01:31:20.976Z,10.3
2019-04-28T01:32:20.286Z,10.3
2019-04-28T01:33:20.556Z,10.3
2019-04-28T01:34:20.269Z,10.3
2019-04-28T01:35:20.986Z,10.3
2019-04-28T01:36:20.261Z,10.3
2019-04-28T01:37:19.681Z,10.3
2019-04-28T01:38:20.402Z,10.3
2019-04-28T01:39:20.038Z,10.3
2019-04-28T01:40:20.476Z,10.2
2019-04-28T01:41:19.833Z,10.2
2019-04-28T01:42:20.358Z,10.3
2019-04-28T01:43:19.669Z,10.3
2019-04-28T01:44:19.882Z,10.3
2019-04-28T01:45:20.539Z,10.3
2019-04-28T01:46:19.904Z,10.3
2019-04-28T01:47:20.442Z,10.3
2019-04-28T01:48:19.902Z,10.3
2019-04-28T01:49:19.750Z,10.3
2019-04-28T01:50:20.407Z,10.3
2019-04-28T01:51:20.847Z,10.3
2019-04-28T01:52:20.261Z,10.2
2019-04-28T01:53:19.948Z,10.2
2019-04-28T01:54:20.032Z,10.2
2019-04-28T01:56:20.415Z,10.2
2019-04-28T01:56:24.607Z,10.2
2019-04-28T01:57:21.459Z,10.2
2019-04-28T01:58:20.390Z,10.2
2019-04-28T01:59:20.109Z,10.2
2019-04-28T02:00:24.940Z,10.2
2019-04-28T02:01:20.387Z,10.2
2019-04-28T02:02:20.033Z,10.2
2019-04-28T02:03:20.516Z,10.2
2019-04-28T02:04:19.981Z,10.2
2019-04-28T02:05:19.995Z,10.2
2019-04-28T02:06:19.995Z,10.2
2019-04-28T02:07:20.556Z,10.2
2019-04-28T02:08:20.320Z,10.1
2019-04-28T02:09:22.634Z,10.2
2019-04-28T02:10:21.782Z,10.1
2019-04-28T02:11:20.081Z,10.1
2019-04-28T02:12:20.402Z,10.1
2019-04-28T02:13:20.091Z,10.1
2019-04-28T02:14:20.095Z,10.1
2019-04-28T02:15:20.307Z,10.1
2019-04-28T02:16:20.094Z,10.1
2019-04-28T02:17:20.311Z,10.1
2019-04-28T02:18:20.119Z,10.1
2019-04-28T02:19:20.385Z,10.1
2019-04-28T02:20:20.269Z,10.1
2019-04-28T02:21:20.133Z,10.1
2019-04-28T02:22:22.590Z,10.1
2019-04-28T02:23:20.190Z,10.1
2019-04-28T02:24:20.229Z,10.1
2019-04-28T02:25:21.375Z,10.1
2019-04-28T02:26:20.311Z,10.1
2019-04-28T02:27:20.466Z,10.1
2019-04-28T02:28:20.421Z,10.1
2019-04-28T02:29:20.487Z,10.1
2019-04-28T02:30:26.502Z,10
2019-04-28T02:31:21.493Z,10
2019-04-28T02:32:24.108Z,10
2019-04-28T02:33:21.191Z,10
2019-04-28T02:34:21.257Z,10
2019-04-28T02:35:21.419Z,10
2019-04-28T02:36:20.879Z,10
2019-04-28T02:37:20.940Z,10
2019-04-28T02:38:21.147Z,10
2019-04-28T02:39:20.968Z,10
2019-04-28T02:40:20.971Z,10
2019-04-28T02:41:20.999Z,9.9
2019-04-28T02:42:21.127Z,9.9
2019-04-28T02:43:21.198Z,9.9
2019-04-28T02:44:23.467Z,9.9
2019-04-28T02:45:21.871Z,9.9
2019-04-28T02:46:21.243Z,9.9
2019-04-28T02:47:22.052Z,9.9
2019-04-28T02:48:21.358Z,9.9
2019-04-28T02:49:21.383Z,9.9
2019-04-28T02:50:21.406Z,9.9
2019-04-28T02:51:21.510Z,9.9
2019-04-28T02:52:22.534Z,9.8
2019-04-28T02:53:21.599Z,9.8
2019-04-28T02:54:21.676Z,9.8
2019-04-28T02:55:21.742Z,9.8
2019-04-28T02:56:21.815Z,9.8
2019-04-28T02:57:21.882Z,9.8
2019-04-28T02:58:22.507Z,9.8
2019-04-28T02:59:21.981Z,9.8
2019-04-28T03:00:22.059Z,9.8
2019-04-28T03:01:26.339Z,9.7
2019-04-28T03:02:22.118Z,9.7
2019-04-28T03:03:22.181Z,9.7
2019-04-28T03:04:22.188Z,9.7
2019-04-28T03:05:22.172Z,9.7
2019-04-28T03:06:22.305Z,9.7
2019-04-28T03:07:22.232Z,9.7
2019-04-28T03:08:22.299Z,9.7
2019-04-28T03:09:22.294Z,9.7
2019-04-28T03:10:22.359Z,9.7
2019-04-28T03:11:22.403Z,9.6
2019-04-28T03:12:22.437Z,9.6
2019-04-28T03:13:22.459Z,9.6
2019-04-28T03:14:22.469Z,9.6
2019-04-28T03:15:22.532Z,9.6
2019-04-28T03:16:23.102Z,9.6
2019-04-28T03:17:22.556Z,9.6
2019-04-28T03:18:22.570Z,9.6
2019-04-28T03:19:22.604Z,9.6
2019-04-28T03:20:22.678Z,9.5
2019-04-28T03:21:22.717Z,9.5
2019-04-28T03:22:22.765Z,9.5
2019-04-28T03:23:22.787Z,9.5
2019-04-28T03:24:22.824Z,9.5
2019-04-28T03:25:22.877Z,9.5
2019-04-28T03:26:22.932Z,9.5
2019-04-28T03:27:22.970Z,9.6
2019-04-28T03:28:22.992Z,9.6
2019-04-28T03:29:23.000Z,9.6
2019-04-28T03:30:23.263Z,9.6
2019-04-28T03:31:50.504Z,9.6
2019-04-28T03:32:39.116Z,9.6
2019-04-28T03:33:25.213Z,9.7
2019-04-28T03:34:23.638Z,9.7
2019-04-28T03:35:23.351Z,9.7
2019-04-28T03:36:23.715Z,9.7
2019-04-28T03:37:24.126Z,9.7
2019-04-28T03:38:23.217Z,9.7
2019-04-28T03:39:23.272Z,9.7
2019-04-28T03:40:23.334Z,9.8
2019-04-28T03:41:23.446Z,9.8
2019-04-28T03:42:23.371Z,9.8
2019-04-28T03:43:23.374Z,9.8
2019-04-28T03:44:23.417Z,9.8
2019-04-28T03:45:23.474Z,9.8
2019-04-28T03:46:23.499Z,9.9
2019-04-28T03:47:23.493Z,9.9
2019-04-28T03:48:23.525Z,9.9
2019-04-28T03:49:23.573Z,9.9
2019-04-28T03:50:23.581Z,9.9
2019-04-28T03:51:23.615Z,9.9
2019-04-28T03:52:23.633Z,10
2019-04-28T03:53:23.669Z,10
2019-04-28T03:54:23.713Z,10
2019-04-28T03:55:23.714Z,10
2019-04-28T03:56:23.726Z,10
2019-04-28T03:57:23.747Z,9.9
2019-04-28T03:58:24.348Z,9.9
2019-04-28T03:59:23.811Z,9.9
2019-04-28T04:00:23.814Z,9.9
2019-04-28T04:01:23.811Z,9.9
2019-04-28T04:02:24.030Z,9.9
2019-04-28T04:03:23.867Z,10
2019-04-28T04:04:23.870Z,10
2019-04-28T04:05:23.901Z,10
2019-04-28T04:06:23.938Z,10
2019-04-28T04:07:23.933Z,10
2019-04-28T04:08:23.964Z,10
2019-04-28T04:09:24.213Z,10
2019-04-28T04:10:23.996Z,10
2019-04-28T04:11:24.130Z,10
2019-04-28T04:12:24.048Z,10
2019-04-28T04:13:24.091Z,10
2019-04-28T04:14:24.087Z,10
2019-04-28T04:15:24.122Z,10
2019-04-28T04:16:24.125Z,10
2019-04-28T04:17:24.124Z,10
2019-04-28T04:18:24.158Z,10
2019-04-28T04:19:24.151Z,10
2019-04-28T04:20:24.159Z,10
2019-04-28T04:21:24.176Z,10
2019-04-28T04:22:26.642Z,10
2019-04-28T04:23:24.194Z,10
2019-04-28T04:24:24.209Z,10
2019-04-28T04:25:24.197Z,10
2019-04-28T04:26:24.257Z,10
2019-04-28T04:27:24.212Z,10
2019-04-28T04:28:24.217Z,10
2019-04-28T04:29:24.224Z,10
2019-04-28T04:30:24.237Z,10.1
2019-04-28T04:31:24.268Z,10.1
2019-04-28T04:32:27.076Z,10.1
2019-04-28T04:33:24.252Z,10.1
2019-04-28T04:34:24.254Z,10.1
2019-04-28T04:35:24.258Z,10.1
2019-04-28T04:36:24.275Z,10.2
2019-04-28T04:37:24.256Z,10.2
2019-04-28T04:38:24.322Z,10.2
2019-04-28T04:39:24.362Z,10.2
2019-04-28T04:40:24.460Z,10.2
2019-04-28T04:41:24.493Z,10.2
2019-04-28T04:42:24.590Z,10.2
2019-04-28T04:43:24.586Z,10.2
2019-04-28T04:44:24.610Z,10.2
2019-04-28T04:45:24.684Z,10.2
2019-04-28T04:46:24.774Z,10.2
2019-04-28T04:47:24.778Z,10.2
2019-04-28T04:48:24.816Z,10.2
2019-04-28T04:49:24.903Z,10.2
2019-04-28T04:50:24.909Z,10.3
2019-04-28T04:51:24.969Z,10.3
2019-04-28T04:52:24.978Z,10.3
2019-04-28T04:53:25.024Z,10.3
2019-04-28T04:54:26.145Z,10.3
2019-04-28T04:55:25.190Z,10.3
2019-04-28T04:56:25.229Z,10.3
2019-04-28T04:57:25.282Z,10.3
2019-04-28T04:58:25.332Z,10.3
2019-04-28T04:59:25.387Z,10.4
2019-04-28T05:00:25.453Z,10.4
2019-04-28T05:01:25.493Z,10.4
2019-04-28T05:02:29.202Z,10.4
2019-04-28T05:03:25.606Z,10.4
2019-04-28T05:04:25.639Z,10.4
2019-04-28T05:05:25.673Z,10.5
2019-04-28T05:06:25.715Z,10.5
2019-04-28T05:07:25.736Z,10.5
2019-04-28T05:08:25.762Z,10.5
2019-04-28T05:09:25.793Z,10.5
2019-04-28T05:10:25.811Z,10.5
2019-04-28T05:11:25.861Z,10.5
2019-04-28T05:12:25.863Z,10.5
2019-04-28T05:13:25.875Z,10.5
2019-04-28T05:14:25.914Z,10.5
2019-04-28T05:15:25.935Z,10.5
2019-04-28T05:16:25.966Z,10.5
2019-04-28T05:17:25.973Z,10.5
2019-04-28T05:18:26.028Z,10.6
2019-04-28T05:19:26.050Z,10.5
2019-04-28T05:20:26.097Z,10.5
2019-04-28T05:21:26.160Z,10.5
2019-04-28T05:22:26.186Z,10.5
2019-04-28T05:23:26.287Z,10.5
2019-04-28T05:24:26.298Z,10.5
2019-04-28T05:25:29.174Z,10.5
2019-04-28T05:26:26.349Z,10.5
2019-04-28T05:27:26.369Z,10.5
2019-04-28T05:28:26.391Z,10.5
2019-04-28T05:29:27.811Z,10.5
2019-04-28T05:30:26.455Z,10.5
2019-04-28T05:31:26.456Z,10.5
2019-04-28T05:32:39.170Z,10.5
2019-04-28T05:33:30.376Z,10.5
2019-04-28T05:34:26.518Z,10.5
2019-04-28T05:35:26.558Z,10.5
2019-04-28T05:36:26.607Z,10.5
2019-04-28T05:37:26.661Z,10.5
2019-04-28T05:38:26.680Z,10.6
2019-04-28T05:39:26.722Z,10.6
2019-04-28T05:40:26.720Z,10.6
2019-04-28T05:41:26.757Z,10.6
2019-04-28T05:42:26.800Z,10.6
2019-04-28T05:43:26.814Z,10.6
2019-04-28T05:44:27.033Z,10.6
2019-04-28T05:45:26.880Z,10.6
2019-04-28T05:46:26.882Z,10.6
2019-04-28T05:47:26.894Z,10.6
2019-04-28T05:48:26.915Z,10.6
2019-04-28T05:49:26.919Z,10.6
2019-04-28T05:50:26.976Z,10.6
2019-04-28T05:51:26.970Z,10.7
2019-04-28T05:52:27.005Z,10.7
2019-04-28T05:53:27.014Z,10.7
2019-04-28T05:54:27.055Z,10.7
2019-04-28T05:55:27.046Z,10.7
2019-04-28T05:56:27.067Z,10.7
2019-04-28T05:57:27.117Z,10.7
2019-04-28T05:58:27.113Z,10.7
2019-04-28T05:59:27.124Z,10.7
2019-04-28T06:00:27.154Z,10.7
2019-04-28T06:01:27.162Z,10.7
2019-04-28T06:02:27.194Z,10.7
2019-04-28T06:03:27.212Z,10.7
2019-04-28T06:04:27.207Z,10.7
2019-04-28T06:05:27.220Z,10.7
2019-04-28T06:06:27.252Z,10.7
2019-04-28T06:07:27.279Z,10.7
2019-04-28T06:08:27.260Z,10.7
2019-04-28T06:09:27.284Z,10.7
2019-04-28T06:10:27.280Z,10.8
2019-04-28T06:11:27.295Z,10.8
2019-04-28T06:12:27.307Z,10.8
2019-04-28T06:13:27.308Z,10.8
2019-04-28T06:14:27.313Z,10.8
2019-04-28T06:15:27.320Z,10.8
2019-04-28T06:16:27.324Z,10.8
2019-04-28T06:17:27.630Z,10.8
2019-04-28T06:18:27.300Z,10.8
2019-04-28T06:19:27.360Z,10.8
2019-04-28T06:20:27.356Z,10.9
2019-04-28T06:21:27.454Z,10.9
2019-04-28T06:22:27.473Z,10.9
2019-04-28T06:23:27.502Z,10.9
2019-04-28T06:24:27.539Z,10.9
2019-04-28T06:25:27.545Z,10.9
2019-04-28T06:26:27.619Z,10.9
2019-04-28T06:27:27.652Z,10.9
2019-04-28T06:28:27.721Z,11
2019-04-28T06:29:27.764Z,11
2019-04-28T06:30:27.834Z,11
2019-04-28T06:31:27.888Z,11
2019-04-28T06:32:27.904Z,11
2019-04-28T06:33:27.906Z,11
2019-04-28T06:34:27.938Z,11
2019-04-28T06:35:28.002Z,11.1
2019-04-28T06:36:28.056Z,11.1
2019-04-28T06:37:28.089Z,11.1
2019-04-28T06:38:28.159Z,11.1
2019-04-28T06:39:28.213Z,11.2
2019-04-28T06:40:30.829Z,11.2
2019-04-28T06:41:28.285Z,11.2
2019-04-28T06:42:28.355Z,11.2
2019-04-28T06:43:28.408Z,11.3
2019-04-28T06:44:28.464Z,11.3
2019-04-28T06:45:28.511Z,11.3
2019-04-28T06:46:28.567Z,11.3
2019-04-28T06:47:28.587Z,11.3
2019-04-28T06:48:28.661Z,11.3
2019-04-28T06:49:28.722Z,11.3
2019-04-28T06:50:28.754Z,11.4
2019-04-28T06:51:28.784Z,11.4
2019-04-28T06:52:28.883Z,11.4
2019-04-28T06:53:28.861Z,11.4
2019-04-28T06:54:28.911Z,11.4
2019-04-28T06:55:28.947Z,11.4
2019-04-28T06:56:28.976Z,11.4
2019-04-28T06:57:29.033Z,11.4
2019-04-28T06:58:29.059Z,11.5
2019-04-28T06:59:29.069Z,11.5
2019-04-28T07:00:29.083Z,11.5
2019-04-28T07:01:29.106Z,11.6
2019-04-28T07:02:29.171Z,11.6
2019-04-28T07:03:29.236Z,11.6
2019-04-28T07:04:29.249Z,11.7
2019-04-28T07:05:29.310Z,11.7
2019-04-28T07:06:29.349Z,11.7
2019-04-28T07:07:29.465Z,11.7
2019-04-28T07:08:29.444Z,11.7
2019-04-28T07:09:29.548Z,11.7
2019-04-28T07:10:29.489Z,11.7
2019-04-28T07:11:29.558Z,11.7
2019-04-28T07:12:29.575Z,11.7
2019-04-28T07:13:29.620Z,11.8
2019-04-28T07:14:29.629Z,11.8
2019-04-28T07:15:29.658Z,11.9
2019-04-28T07:16:29.710Z,11.9
2019-04-28T07:17:29.715Z,11.9
2019-04-28T07:18:29.733Z,11.9
2019-04-28T07:19:29.758Z,12
2019-04-28T07:20:29.765Z,12
2019-04-28T07:21:29.786Z,12
2019-04-28T07:22:29.830Z,12
2019-04-28T07:23:29.867Z,12.1
2019-04-28T07:24:29.879Z,12.1
2019-04-28T07:25:29.891Z,12.1
2019-04-28T07:26:29.930Z,12.1
2019-04-28T07:27:29.941Z,12.1
2019-04-28T07:28:29.973Z,12.1
2019-04-28T07:29:29.999Z,12.1
2019-04-28T07:30:30.030Z,12.1
2019-04-28T07:31:30.051Z,12.1
2019-04-28T07:32:30.081Z,12.2
2019-04-28T07:33:35.966Z,12.2
2019-04-28T07:34:30.121Z,12.3
2019-04-28T07:35:30.140Z,12.3
2019-04-28T07:36:30.137Z,12.4
2019-04-28T07:37:30.201Z,12.4
2019-04-28T07:38:30.201Z,12.4
2019-04-28T07:39:30.242Z,12.4
2019-04-28T07:40:30.254Z,12.4
2019-04-28T07:41:30.263Z,12.4
2019-04-28T07:42:30.287Z,12.3
2019-04-28T07:43:30.330Z,12.3
2019-04-28T07:44:30.343Z,12.2
2019-04-28T07:45:30.334Z,12.2
2019-04-28T07:46:30.345Z,12.1
2019-04-28T07:47:30.385Z,12.1
2019-04-28T07:48:30.380Z,12
2019-04-28T07:49:30.447Z,11.9
2019-04-28T07:50:30.395Z,11.9
2019-04-28T07:51:30.418Z,11.9
2019-04-28T07:52:30.493Z,11.9
2019-04-28T07:53:30.446Z,12
2019-04-28T07:54:30.446Z,12
2019-04-28T07:55:30.475Z,11.9
2019-04-28T07:56:33.231Z,11.9
2019-04-28T07:57:30.485Z,11.9
2019-04-28T07:58:30.499Z,11.9
2019-04-28T07:59:30.504Z,12
2019-04-28T08:00:30.479Z,12
2019-04-28T08:01:30.467Z,12
2019-04-28T08:02:30.549Z,12.1
2019-04-28T08:03:30.577Z,12.1
2019-04-28T08:04:30.651Z,12.1
2019-04-28T08:05:30.733Z,12.1
2019-04-28T08:06:30.771Z,12.1
2019-04-28T08:07:33.039Z,12.1
2019-04-28T08:08:30.843Z,12.1
2019-04-28T08:09:30.896Z,12.2
2019-04-28T08:10:30.997Z,12.2
2019-04-28T08:11:31.026Z,12.2
2019-04-28T08:12:33.299Z,12.2
2019-04-28T08:13:31.154Z,12.2
2019-04-28T08:14:33.704Z,12.2
2019-04-28T08:15:31.291Z,12.2
2019-04-28T08:16:31.281Z,12.2
2019-04-28T08:17:31.274Z,12.2
2019-04-28T08:18:31.677Z,12.3
2019-04-28T08:19:31.399Z,12.3
2019-04-28T08:20:31.413Z,12.3
2019-04-28T08:21:31.463Z,12.3
2019-04-28T08:22:31.544Z,12.3
2019-04-28T08:23:31.592Z,12.3
2019-04-28T08:24:31.598Z,12.4
2019-04-28T08:25:31.609Z,12.5
2019-04-28T08:26:31.676Z,12.5
2019-04-28T08:27:31.746Z,12.6
2019-04-28T08:28:31.833Z,12.6
2019-04-28T08:29:31.829Z,12.7
2019-04-28T08:30:31.847Z,12.7
2019-04-28T08:31:31.889Z,12.8
2019-04-28T08:32:31.948Z,12.8
2019-04-28T08:33:33.272Z,12.7
2019-04-28T08:34:31.982Z,12.7
2019-04-28T08:35:31.993Z,12.8
2019-04-28T08:36:32.057Z,12.8
2019-04-28T08:37:32.102Z,12.7
2019-04-28T08:38:32.108Z,12.7
2019-04-28T08:39:32.231Z,12.7
2019-04-28T08:40:32.246Z,12.7
2019-04-28T08:41:32.294Z,12.7
2019-04-28T08:43:28.865Z,12.7
2019-04-28T08:44:28.499Z,12.7
2019-04-28T08:45:28.554Z,12.7
2019-04-28T08:46:28.543Z,12.8
2019-04-28T08:47:28.533Z,12.8
2019-04-28T08:48:28.500Z,12.9
2019-04-28T08:49:28.514Z,12.9
2019-04-28T08:50:28.498Z,12.9
2019-04-28T08:51:28.492Z,12.9
2019-04-28T08:52:28.574Z,12.9
2019-04-28T08:53:28.607Z,13
2019-04-28T08:54:28.652Z,13
2019-04-28T08:55:28.725Z,13
2019-04-28T08:56:28.786Z,13
2019-04-28T08:57:28.805Z,13
2019-04-28T08:58:28.923Z,13
2019-04-28T08:59:28.897Z,13
2019-04-28T09:00:28.957Z,13
2019-04-28T09:01:29.028Z,13
2019-04-28T09:02:29.070Z,13.1
2019-04-28T09:03:31.574Z,13.1
2019-04-28T09:04:29.157Z,13.1
2019-04-28T09:05:29.185Z,13.1
2019-04-28T09:06:29.231Z,13.1
2019-04-28T09:07:29.287Z,13.1
2019-04-28T09:08:29.308Z,13.1
2019-04-28T09:09:29.370Z,13.2
2019-04-28T09:10:29.405Z,13.2
2019-04-28T09:11:29.476Z,13.3
2019-04-28T09:12:29.486Z,13.3
2019-04-28T09:13:29.533Z,13.3
2019-04-28T09:14:29.584Z,13.4
2019-04-28T09:15:29.630Z,13.4
2019-04-28T09:16:29.686Z,13.4
2019-04-28T09:17:29.738Z,13.5
2019-04-28T09:19:29.820Z,13.5
2019-04-28T09:20:29.851Z,13.6
2019-04-28T09:21:29.923Z,13.7
2019-04-28T09:22:29.892Z,13.8
2019-04-28T09:23:29.968Z,13.9
2019-04-28T09:24:29.977Z,13.9
2019-04-28T09:25:29.965Z,14
2019-04-28T09:26:30.002Z,14.1
2019-04-28T09:27:30.032Z,14.2
2019-04-28T09:28:30.085Z,14.3
2019-04-28T09:29:30.130Z,14.3
2019-04-28T09:30:30.192Z,14.4
2019-04-28T09:31:30.248Z,14.4
2019-04-28T09:32:30.277Z,14.4
2019-04-28T09:33:30.294Z,14.5
2019-04-28T09:34:30.325Z,14.5
2019-04-28T09:35:30.343Z,14.6
2019-04-28T09:36:33.010Z,14.7
2019-04-28T09:37:30.397Z,14.7
2019-04-28T09:38:30.387Z,14.8
2019-04-28T09:39:30.458Z,14.8
2019-04-28T09:40:30.446Z,14.8
2019-04-28T09:41:30.440Z,14.8
2019-04-28T09:42:30.480Z,14.8
2019-04-28T09:43:30.539Z,14.8
2019-04-28T09:44:30.580Z,14.8
2019-04-28T09:45:30.578Z,14.7
2019-04-28T09:46:30.640Z,14.7
2019-04-28T09:47:30.659Z,14.6
2019-04-28T09:48:30.675Z,14.5
2019-04-28T09:49:30.677Z,14.5
2019-04-28T09:50:30.736Z,14.5
2019-04-28T09:51:30.758Z,14.4
2019-04-28T09:52:30.781Z,14.4
2019-04-28T09:53:30.813Z,14.5
2019-04-28T09:54:30.869Z,14.5
2019-04-28T09:55:30.877Z,14.6
2019-04-28T09:56:30.885Z,14.7
2019-04-28T09:57:30.905Z,14.7
2019-04-28T09:58:30.943Z,14.8
2019-04-28T09:59:30.989Z,14.9
2019-04-28T10:00:30.982Z,14.9
2019-04-28T10:01:30.987Z,14.9
2019-04-28T10:02:31.044Z,15
2019-04-28T10:03:31.121Z,15
2019-04-28T10:04:40.874Z,15
2019-04-28T10:05:31.108Z,15
2019-04-28T10:06:31.129Z,15
2019-04-28T10:07:31.153Z,15
2019-04-28T10:08:31.256Z,15
2019-04-28T10:09:31.192Z,15.1
2019-04-28T10:10:31.220Z,15.1
2019-04-28T10:11:31.227Z,15.2
2019-04-28T10:12:31.220Z,15.2
2019-04-28T10:13:31.264Z,15.2
2019-04-28T10:14:31.265Z,15.2
2019-04-28T10:15:31.293Z,15.1
2019-04-28T10:16:31.360Z,15.1
2019-04-28T10:17:31.295Z,15
2019-04-28T10:18:31.320Z,14.9
2019-04-28T10:19:32.628Z,14.9
2019-04-28T10:20:31.334Z,14.9
2019-04-28T10:21:31.349Z,14.8
2019-04-28T10:22:31.339Z,14.8
2019-04-28T10:23:31.406Z,14.7
2019-04-28T10:24:31.366Z,14.6
2019-04-28T10:25:31.393Z,14.6
2019-04-28T10:26:31.389Z,14.6
2019-04-28T10:27:31.410Z,14.6
2019-04-28T10:28:31.412Z,14.6
2019-04-28T10:29:32.943Z,14.6
2019-04-28T10:30:31.378Z,14.6
2019-04-28T10:31:31.422Z,14.5
2019-04-28T10:32:31.474Z,14.4
2019-04-28T10:33:31.526Z,14.3
2019-04-28T10:34:31.628Z,14.3
2019-04-28T10:35:31.663Z,14.2
2019-04-28T10:36:31.740Z,14.2
2019-04-28T10:37:31.754Z,14.1
2019-04-28T10:38:31.755Z,14.1
2019-04-28T10:39:31.869Z,14
2019-04-28T10:40:31.886Z,14
2019-04-28T10:41:31.960Z,14
2019-04-28T10:42:32.022Z,13.9
2019-04-28T10:43:32.018Z,13.9
2019-04-28T10:44:32.094Z,13.9
2019-04-28T10:45:32.138Z,13.9
2019-04-28T10:46:32.175Z,13.9
2019-04-28T10:47:32.203Z,13.9
2019-04-28T10:48:32.232Z,14
2019-04-28T10:49:32.279Z,14
2019-04-28T10:50:32.331Z,14
2019-04-28T10:51:32.331Z,14
2019-04-28T10:52:32.346Z,14
2019-04-28T10:53:32.414Z,14
2019-04-28T10:54:32.472Z,14.1
2019-04-28T10:55:32.525Z,14.1
2019-04-28T10:56:32.541Z,14.1
2019-04-28T10:57:32.576Z,14.1
2019-04-28T10:58:32.684Z,14.2
2019-04-28T10:59:32.708Z,14.2
2019-04-28T11:00:32.769Z,14.2
2019-04-28T11:01:32.872Z,14.2
2019-04-28T11:02:32.864Z,14.2
2019-04-28T11:03:32.907Z,14.2
2019-04-28T11:04:32.964Z,14.2
2019-04-28T11:05:32.963Z,14.2
2019-04-28T11:06:33.026Z,14.2
2019-04-28T11:07:33.084Z,14.1
2019-04-28T11:08:33.099Z,14.1
2019-04-28T11:09:33.126Z,14.1
2019-04-28T11:10:33.183Z,14.1
2019-04-28T11:11:33.212Z,14.1
2019-04-28T11:12:33.258Z,14
2019-04-28T11:13:33.290Z,14.1
2019-04-28T11:14:33.365Z,14.1
2019-04-28T11:15:35.923Z,14.1
2019-04-28T11:16:33.444Z,14.1
2019-04-28T11:17:33.491Z,14.1
2019-04-28T11:18:33.542Z,14.2
2019-04-28T11:19:33.596Z,14.2
2019-04-28T11:20:33.619Z,14.1
2019-04-28T11:21:33.652Z,14.1
2019-04-28T11:22:33.694Z,14
2019-04-28T11:23:33.743Z,14
2019-04-28T11:24:33.802Z,14
2019-04-28T11:25:33.818Z,14
2019-04-28T11:26:33.857Z,14.1
2019-04-28T11:27:33.887Z,14.1
2019-04-28T11:28:33.908Z,14.1
2019-04-28T11:29:34.002Z,14.1
2019-04-28T11:30:33.986Z,14.1
2019-04-28T11:31:34.126Z,14.1
2019-04-28T11:32:34.042Z,14.2
2019-04-28T11:33:34.163Z,14.2
2019-04-28T11:34:34.184Z,14.2
2019-04-28T11:35:34.148Z,14.2
2019-04-28T11:36:34.183Z,14.2
2019-04-28T11:37:34.212Z,14.3
2019-04-28T11:38:34.240Z,14.3
2019-04-28T11:39:34.269Z,14.3
2019-04-28T11:40:34.290Z,14.3
2019-04-28T11:41:34.419Z,14.4
2019-04-28T11:42:34.327Z,14.5
2019-04-28T11:43:34.349Z,14.5
2019-04-28T11:44:34.398Z,14.6
2019-04-28T11:45:34.409Z,14.6
2019-04-28T11:46:34.436Z,14.6
2019-04-28T11:47:34.498Z,14.6
2019-04-28T11:48:34.468Z,14.6
2019-04-28T11:49:34.484Z,14.6
2019-04-28T11:50:34.726Z,14.6
2019-04-28T11:51:34.655Z,14.5
2019-04-28T11:52:34.539Z,14.5
2019-04-28T11:53:34.573Z,14.4
2019-04-28T11:54:34.693Z,14.4
2019-04-28T11:55:37.072Z,14.3
2019-04-28T11:56:41.066Z,14.3
2019-04-28T11:57:34.600Z,14.2
2019-04-28T11:58:34.608Z,14.2
2019-04-28T11:59:34.852Z,14.1
2019-04-28T12:00:34.636Z,14
2019-04-28T12:01:34.662Z,13.9
2019-04-28T12:02:34.639Z,13.9
2019-04-28T12:03:34.641Z,13.9
2019-04-28T12:04:36.874Z,13.8
2019-04-28T12:05:34.990Z,13.8
2019-04-28T12:06:34.736Z,13.8
2019-04-28T12:07:34.681Z,13.8
2019-04-28T12:08:34.756Z,13.8
2019-04-28T12:09:34.935Z,13.7
2019-04-28T12:10:35.043Z,13.7
2019-04-28T12:11:34.993Z,13.7
2019-04-28T12:12:35.020Z,13.7
2019-04-28T12:13:35.008Z,13.7
2019-04-28T12:14:35.027Z,13.7
2019-04-28T12:15:35.116Z,13.8
2019-04-28T12:16:35.170Z,13.8
2019-04-28T12:17:35.268Z,13.8
2019-04-28T12:18:35.257Z,13.7
2019-04-28T12:19:35.300Z,13.7
2019-04-28T12:20:35.335Z,13.7
2019-04-28T12:21:35.404Z,13.7
2019-04-28T12:22:35.407Z,13.7
2019-04-28T12:23:35.437Z,13.7
2019-04-28T12:24:35.490Z,13.7
2019-04-28T12:25:35.617Z,13.6
2019-04-28T12:26:42.899Z,13.6
2019-04-28T12:27:35.610Z,13.7
2019-04-28T12:28:35.650Z,13.7
2019-04-28T12:29:35.932Z,13.7
2019-04-28T12:30:35.746Z,13.7
2019-04-28T12:31:35.753Z,13.7
2019-04-28T12:32:35.823Z,13.7
2019-04-28T12:33:35.884Z,13.7
2019-04-28T12:34:36.045Z,13.8
2019-04-28T12:35:46.985Z,13.8
2019-04-28T12:36:36.089Z,13.9
2019-04-28T12:37:36.070Z,13.9
2019-04-28T12:38:36.211Z,14
2019-04-28T12:39:36.195Z,14
2019-04-28T12:40:36.219Z,14
2019-04-28T12:41:36.284Z,14.1
2019-04-28T12:42:36.294Z,14.1
2019-04-28T12:43:36.338Z,14.1
2019-04-28T12:44:36.409Z,14.2
2019-04-28T12:45:36.435Z,14.3
2019-04-28T12:46:36.503Z,14.4
2019-04-28T12:47:36.491Z,14.4
2019-04-28T12:48:36.533Z,14.5
2019-04-28T12:49:36.646Z,14.6
2019-04-28T12:50:36.633Z,14.7
2019-04-28T12:51:36.720Z,14.8
2019-04-28T12:52:36.725Z,14.8
2019-04-28T12:53:36.723Z,14.8
2019-04-28T12:54:36.791Z,14.8
2019-04-28T12:55:36.819Z,14.8
2019-04-28T12:56:39.094Z,14.9
2019-04-28T12:57:36.923Z,14.9
2019-04-28T12:58:36.936Z,14.9
2019-04-28T12:59:36.997Z,14.9
2019-04-28T13:00:37.031Z,14.9
2019-04-28T13:01:37.046Z,14.9
2019-04-28T13:02:37.088Z,14.9
2019-04-28T13:03:37.104Z,14.9
2019-04-28T13:04:37.171Z,14.9
2019-04-28T13:05:37.234Z,15
2019-04-28T13:06:37.347Z,15
2019-04-28T13:07:37.356Z,15
2019-04-28T13:08:37.360Z,15.1
2019-04-28T13:09:37.326Z,15.1
2019-04-28T13:10:37.372Z,15
2019-04-28T13:11:37.384Z,15
2019-04-28T13:12:37.547Z,15
2019-04-28T13:13:37.485Z,14.9
2019-04-28T13:14:37.541Z,14.9
2019-04-28T13:15:37.459Z,14.8
2019-04-28T13:16:37.617Z,14.8
2019-04-28T13:17:37.494Z,14.8
2019-04-28T13:18:37.577Z,14.8
2019-04-28T13:19:37.580Z,14.8
2019-04-28T13:20:37.567Z,14.8
2019-04-28T13:21:37.585Z,14.8
2019-04-28T13:22:37.624Z,14.7
2019-04-28T13:23:37.663Z,14.7
2019-04-28T13:24:37.669Z,14.7
2019-04-28T13:25:37.717Z,14.7
2019-04-28T13:26:37.710Z,14.7
2019-04-28T13:27:37.729Z,14.7
2019-04-28T13:28:37.742Z,14.7
2019-04-28T13:29:37.742Z,14.7
2019-04-28T13:30:37.770Z,14.6